Time;durP1;ratioP1;P1;durP2;ratioP2;P2;SDS_P1;SDS_P2;PMS_P1;PMS_P2;Temp;Humidity;BMP_temperature;BMP_pressure;BME280_temperature;BME280_humidity;BME280_pressure;Samples;Min_cycle;Max_cycle;Signal;HPM_P1;HPM_P2
2022/08/23 00:01:37;;;;;;;1.33;1.00;;;;;;;;;;5046751;28;20052;-45
2022/08/23 00:04:07;;;;;;;2.70;1.00;;;;;;;;;;5046840;28;20063;-51
2022/08/23 00:06:33;;;;;;;2.15;1.00;;;;;;;;;;5047209;28;20017;-46
2022/08/23 00:08:58;;;;;;;1.90;1.40;;;;;;;;;;5048628;28;20033;-50
2022/08/23 00:11:38;;;;;;;4.57;1.38;;;;;;;;;;5047751;28;20033;-48
2022/08/23 00:14:09;;;;;;;1.30;1.20;;;;;;;;;;5045496;28;20039;-49
2022/08/23 00:16:36;;;;;;;1.75;1.13;;;;;;;;;;5046093;28;20032;-48
2022/08/23 00:19:04;;;;;;;3.30;1.40;;;;;;;;;;5045939;28;20064;-49
2022/08/23 00:21:29;;;;;;;6.00;1.45;;;;;;;;;;5042699;28;20104;-51
2022/08/23 00:23:55;;;;;;;2.03;1.30;;;;;;;;;;5048408;28;20181;-47
2022/08/23 00:26:21;;;;;;;7.10;1.40;;;;;;;;;;5046027;28;20028;-49
2022/08/23 00:28:48;;;;;;;1.52;1.30;;;;;;;;;;5043075;28;20397;-50
2022/08/23 00:31:18;;;;;;;2.72;1.38;;;;;;;;;;5046778;28;20059;-48
2022/08/23 00:33:43;;;;;;;1.45;1.10;;;;;;;;;;5047148;28;20017;-48
2022/08/23 00:36:09;;;;;;;2.03;1.38;;;;;;;;;;5044413;28;20434;-49
2022/08/23 00:38:35;;;;;;;2.95;1.00;;;;;;;;;;5047343;28;20025;-50
2022/08/23 00:41:01;;;;;;;4.05;1.30;;;;;;;;;;5046563;28;20060;-48
2022/08/23 00:49:30;;;;;;;8.10;1.38;;;;;;;;;;5046139;28;20104;-45
2022/08/23 00:52:02;;;;;;;6.28;1.60;;;;;;;;;;5046425;28;20033;-50
2022/08/23 00:54:29;;;;;;;1.20;1.10;;;;;;;;;;5047073;28;20047;-44
2022/08/23 00:56:58;;;;;;;3.20;1.30;;;;;;;;;;5045542;28;20049;-49
2022/08/23 00:59:24;;;;;;;1.70;1.30;;;;;;;;;;5042343;28;20032;-49
2022/08/23 01:01:51;;;;;;;1.45;1.08;;;;;;;;;;5042891;28;20090;-50
2022/08/23 01:04:17;;;;;;;2.55;1.20;;;;;;;;;;5046388;28;20058;-44
2022/08/23 01:06:46;;;;;;;1.48;1.10;;;;;;;;;;5043914;28;20029;-46
2022/08/23 01:09:16;;;;;;;1.63;1.30;;;;;;;;;;5044001;28;20037;-50
2022/08/23 01:11:59;;;;;;;2.80;1.20;;;;;;;;;;5048282;28;20461;-49
2022/08/23 01:14:26;;;;;;;2.20;1.17;;;;;;;;;;5045937;28;20396;-50
2022/08/23 01:17:08;;;;;;;1.38;1.27;;;;;;;;;;5045216;28;20029;-48
2022/08/23 01:19:36;;;;;;;;;;;;;;;;;;5048284;28;20037;-45
2022/08/23 01:22:08;;;;;;;1.98;1.10;;;;;;;;;;5046550;28;20535;-47
2022/08/23 01:24:36;;;;;;;1.67;1.20;;;;;;;;;;5042578;28;20033;-47
2022/08/23 01:27:02;;;;;;;4.75;1.13;;;;;;;;;;5043767;28;20054;-47
2022/08/23 01:29:28;;;;;;;1.85;1.05;;;;;;;;;;5044957;28;20045;-49
2022/08/23 01:31:55;;;;;;;3.63;1.13;;;;;;;;;;5044215;28;20032;-47
2022/08/23 01:34:26;;;;;;;3.63;1.30;;;;;;;;;;5046166;28;20028;-49
2022/08/23 01:36:52;;;;;;;1.97;1.10;;;;;;;;;;5042962;28;20021;-45
2022/08/23 01:39:17;;;;;;;1.83;1.20;;;;;;;;;;5046574;28;20278;-44
2022/08/23 01:41:43;;;;;;;1.48;0.98;;;;;;;;;;5043622;28;20021;-43
2022/08/23 01:44:09;;;;;;;1.00;1.00;;;;;;;;;;5045878;28;20485;-44
2022/08/23 01:46:35;;;;;;;5.45;1.08;;;;;;;;;;5040072;28;20111;-51
2022/08/23 01:49:03;;;;;;;2.05;1.27;;;;;;;;;;5036476;28;20025;-46
2022/08/23 01:51:29;;;;;;;2.45;1.20;;;;;;;;;;5043270;28;20126;-51
2022/08/23 01:53:55;;;;;;;1.08;0.98;;;;;;;;;;5045879;28;20382;-46
2022/08/23 01:56:23;;;;;;;1.25;1.00;;;;;;;;;;5045873;28;20045;-50
2022/08/23 01:58:49;;;;;;;3.00;1.20;;;;;;;;;;5047101;28;20062;-47
2022/08/23 02:01:16;;;;;;;1.13;0.90;;;;;;;;;;5042271;28;20036;-46
2022/08/23 02:03:42;;;;;;;1.35;1.25;;;;;;;;;;5046746;28;20036;-44
2022/08/23 02:06:08;;;;;;;3.10;1.00;;;;;;;;;;5042662;28;20103;-47
2022/08/23 02:11:21;;;;;;;3.45;1.10;;;;;;;;;;5044199;28;20032;-47
2022/08/23 02:13:49;;;;;;;1.75;1.15;;;;;;;;;;5045916;28;20124;-46
2022/08/23 02:16:24;;;;;;;1.35;0.95;;;;;;;;;;5040498;28;20037;-46
2022/08/23 02:18:49;;;;;;;1.50;1.40;;;;;;;;;;5044995;28;20029;-50
2022/08/23 02:21:15;;;;;;;1.13;0.95;;;;;;;;;;5047271;28;20388;-49
2022/08/23 02:23:41;;;;;;;2.05;1.25;;;;;;;;;;5044326;28;20090;-46
2022/08/23 02:26:06;;;;;;;1.23;1.00;;;;;;;;;;5043362;28;20025;-49
2022/08/23 02:28:32;;;;;;;2.15;1.13;;;;;;;;;;5045385;28;20025;-45
2022/08/23 02:30:58;;;;;;;1.13;1.02;;;;;;;;;;5043153;28;20025;-51
2022/08/23 02:33:24;;;;;;;4.05;1.20;;;;;;;;;;5045700;28;20044;-48
2022/08/23 02:35:50;;;;;;;4.10;1.15;;;;;;;;;;5042743;28;20120;-49
2022/08/23 02:38:17;;;;;;;1.70;1.20;;;;;;;;;;5045793;28;20020;-48
2022/08/23 02:40:43;;;;;;;4.00;1.17;;;;;;;;;;5045885;28;20078;-49
2022/08/23 02:43:09;;;;;;;2.35;1.13;;;;;;;;;;5046587;28;20041;-47
2022/08/23 02:45:36;;;;;;;0.95;0.93;;;;;;;;;;5047286;28;20021;-47
2022/08/23 02:48:03;;;;;;;2.40;1.30;;;;;;;;;;5043510;28;20021;-49
2022/08/23 02:50:29;;;;;;;10.18;1.45;;;;;;;;;;5045459;28;20025;-45
2022/08/23 02:52:56;;;;;;;3.97;1.63;;;;;;;;;;5049051;28;20025;-45
2022/08/23 02:55:22;;;;;;;3.30;1.50;;;;;;;;;;5047801;28;20071;-46
2022/08/23 02:57:48;;;;;;;3.47;1.45;;;;;;;;;;5043701;28;20158;-46
2022/08/23 03:00:15;;;;;;;3.63;1.00;;;;;;;;;;5047684;28;20176;-44
2022/08/23 03:02:41;;;;;;;1.58;1.40;;;;;;;;;;5048744;28;20041;-46
2022/08/23 03:05:09;;;;;;;2.90;1.10;;;;;;;;;;5047702;28;20039;-46
2022/08/23 03:07:35;;;;;;;2.42;1.00;;;;;;;;;;5048816;28;20029;-49
2022/08/23 03:10:01;;;;;;;1.02;1.00;;;;;;;;;;5044947;28;20033;-46
2022/08/23 03:12:27;;;;;;;6.38;1.30;;;;;;;;;;5047407;28;20290;-49
2022/08/23 03:14:53;;;;;;;2.80;1.10;;;;;;;;;;5050178;28;20115;-49
2022/08/23 03:17:19;;;;;;;1.02;1.02;;;;;;;;;;5046706;28;20107;-46
2022/08/23 03:19:45;;;;;;;2.75;1.13;;;;;;;;;;5044169;28;20504;-49
2022/08/23 03:22:10;;;;;;;1.05;0.85;;;;;;;;;;5047333;28;20029;-46
2022/08/23 03:24:36;;;;;;;3.10;1.20;;;;;;;;;;5046386;28;20025;-46
2022/08/23 03:27:03;;;;;;;3.75;1.10;;;;;;;;;;5046458;28;20033;-49
2022/08/23 03:29:30;;;;;;;2.50;1.40;;;;;;;;;;5046060;28;20029;-51
2022/08/23 03:31:57;;;;;;;3.13;1.65;;;;;;;;;;5049512;28;20149;-45
2022/08/23 03:34:22;;;;;;;1.33;1.17;;;;;;;;;;5046570;28;20029;-51
2022/08/23 03:36:48;;;;;;;2.45;1.50;;;;;;;;;;5043395;28;20025;-50
2022/08/23 03:39:15;;;;;;;2.25;1.15;;;;;;;;;;5044641;28;20389;-46
2022/08/23 03:41:40;;;;;;;4.63;1.25;;;;;;;;;;5042188;28;20040;-46
2022/08/23 03:44:06;;;;;;;2.63;1.60;;;;;;;;;;5045099;28;20029;-50
2022/08/23 03:46:32;;;;;;;1.25;1.13;;;;;;;;;;5049331;28;20090;-48
2022/08/23 03:49:00;;;;;;;3.17;1.20;;;;;;;;;;5045549;28;20140;-48
2022/08/23 03:51:28;;;;;;;2.70;1.30;;;;;;;;;;5045228;28;20037;-49
2022/08/23 03:53:53;;;;;;;2.72;1.25;;;;;;;;;;5045732;28;20028;-49
2022/08/23 03:56:38;;;;;;;1.42;1.10;;;;;;;;;;5046076;28;20048;-51
2022/08/23 03:59:08;;;;;;;1.52;1.27;;;;;;;;;;5044433;28;20036;-46
2022/08/23 04:01:33;;;;;;;2.80;1.25;;;;;;;;;;5045540;28;20055;-44
2022/08/23 04:03:59;;;;;;;1.35;1.20;;;;;;;;;;5048022;28;20458;-48
2022/08/23 04:06:27;;;;;;;2.03;1.30;;;;;;;;;;5048089;28;20036;-49
2022/08/23 04:08:53;;;;;;;1.60;1.30;;;;;;;;;;5044658;28;20032;-47
2022/08/23 04:11:21;;;;;;;1.00;0.95;;;;;;;;;;5044791;28;20028;-44
2022/08/23 04:13:46;;;;;;;1.08;0.95;;;;;;;;;;5047622;28;20033;-47
2022/08/23 04:16:12;;;;;;;1.75;1.13;;;;;;;;;;5046120;28;20044;-45
2022/08/23 04:18:38;;;;;;;1.60;1.00;;;;;;;;;;5046234;28;20028;-46
2022/08/23 04:21:09;;;;;;;1.48;1.15;;;;;;;;;;5044975;28;20455;-52
2022/08/23 04:23:38;;;;;;;7.38;1.25;;;;;;;;;;5048064;28;20114;-47
2022/08/23 04:26:05;;;;;;;3.47;1.40;;;;;;;;;;5044140;28;20529;-46
2022/08/23 04:28:34;;;;;;;1.42;1.20;;;;;;;;;;5045817;28;20377;-48
2022/08/23 04:31:02;;;;;;;3.20;1.30;;;;;;;;;;5042768;28;20032;-47
2022/08/23 04:33:32;;;;;;;1.42;1.17;;;;;;;;;;5045987;28;20090;-47
2022/08/23 04:35:59;;;;;;;1.65;1.55;;;;;;;;;;5046702;28;20497;-45
2022/08/23 04:38:25;;;;;;;1.88;1.20;;;;;;;;;;5044704;28;20033;-48
2022/08/23 04:43:37;;;;;;;1.40;1.30;;;;;;;;;;5041221;28;20481;-45
2022/08/23 04:46:04;;;;;;;3.28;1.40;;;;;;;;;;5042970;28;20102;-49
2022/08/23 04:48:29;;;;;;;3.30;1.30;;;;;;;;;;5045266;28;20032;-51
2022/08/23 04:50:56;;;;;;;2.33;1.30;;;;;;;;;;5043217;28;20033;-47
2022/08/23 04:53:22;;;;;;;2.17;1.30;;;;;;;;;;5045704;28;20381;-47
2022/08/23 04:55:49;;;;;;;5.13;1.10;;;;;;;;;;5041628;28;20044;-44
2022/08/23 04:58:15;;;;;;;1.45;1.17;;;;;;;;;;5043485;28;20120;-45
2022/08/23 05:00:41;;;;;;;3.72;1.10;;;;;;;;;;5041408;28;20025;-46
2022/08/23 05:03:06;;;;;;;2.15;1.25;;;;;;;;;;5043921;28;20025;-45
2022/08/23 05:05:32;;;;;;;2.35;1.30;;;;;;;;;;5053041;28;20037;-44
2022/08/23 05:07:58;;;;;;;5.43;1.30;;;;;;;;;;5043445;28;20032;-49
2022/08/23 05:10:24;;;;;;;3.20;1.52;;;;;;;;;;5039404;28;20119;-49
2022/08/23 05:12:50;;;;;;;1.30;1.20;;;;;;;;;;5034665;28;20477;-44
2022/08/23 05:15:16;;;;;;;3.42;1.20;;;;;;;;;;5041184;28;20104;-47
2022/08/23 05:17:41;;;;;;;2.15;1.35;;;;;;;;;;5024118;28;20898;-48
2022/08/23 05:20:09;;;;;;;3.65;1.20;;;;;;;;;;5039951;28;20040;-47
2022/08/23 05:22:37;;;;;;;4.07;1.30;;;;;;;;;;5047414;28;20064;-46
2022/08/23 05:25:04;;;;;;;3.85;1.73;;;;;;;;;;5044547;28;20026;-47
2022/08/23 05:27:29;;;;;;;4.15;1.70;;;;;;;;;;5046316;28;20033;-44
2022/08/23 05:29:56;;;;;;;4.55;1.60;;;;;;;;;;5044030;28;20106;-44
2022/08/23 05:32:22;;;;;;;2.42;1.27;;;;;;;;;;5044635;28;20047;-52
2022/08/23 05:34:48;;;;;;;2.10;1.23;;;;;;;;;;5046567;28;20481;-47
2022/08/23 05:37:14;;;;;;;1.65;1.30;;;;;;;;;;5043384;28;20029;-46
2022/08/23 05:39:41;;;;;;;2.58;1.75;;;;;;;;;;5040807;28;20055;-45
2022/08/23 05:42:09;;;;;;;4.13;1.52;;;;;;;;;;5046350;28;20106;-47
2022/08/23 05:44:36;;;;;;;1.92;1.40;;;;;;;;;;5043504;28;20021;-49
2022/08/23 05:47:02;;;;;;;1.50;1.40;;;;;;;;;;5046028;28;20032;-45
2022/08/23 05:49:29;;;;;;;5.47;1.60;;;;;;;;;;5045000;28;20090;-46
2022/08/23 05:51:55;;;;;;;3.05;1.45;;;;;;;;;;5041756;28;20033;-51
2022/08/23 05:54:21;;;;;;;3.42;1.60;;;;;;;;;;5043042;28;20387;-47
2022/08/23 05:56:47;;;;;;;6.32;1.80;;;;;;;;;;5041788;28;20120;-49
2022/08/23 05:59:15;;;;;;;2.92;1.70;;;;;;;;;;5044929;28;20039;-44
2022/08/23 06:01:42;;;;;;;3.92;1.92;;;;;;;;;;5046132;28;20033;-49
2022/08/23 06:04:11;;;;;;;5.00;1.67;;;;;;;;;;5041382;28;20031;-50
2022/08/23 06:06:38;;;;;;;3.80;1.75;;;;;;;;;;5044092;28;20504;-49
2022/08/23 06:09:06;;;;;;;4.45;1.77;;;;;;;;;;5039951;28;20025;-47
2022/08/23 06:11:32;;;;;;;2.65;1.60;;;;;;;;;;5044312;28;20064;-46
2022/08/23 06:14:03;;;;;;;6.30;1.83;;;;;;;;;;5041622;28;20064;-46
2022/08/23 06:16:37;;;;;;;4.50;2.33;;;;;;;;;;5042425;28;20601;-48
2022/08/23 06:19:05;;;;;;;7.93;2.00;;;;;;;;;;5043328;28;20035;-47
2022/08/23 06:21:31;;;;;;;2.13;1.60;;;;;;;;;;5041634;28;20622;-46
2022/08/23 06:23:57;;;;;;;3.70;1.80;;;;;;;;;;5044167;28;20031;-48
2022/08/23 06:26:30;;;;;;;4.15;1.73;;;;;;;;;;5042844;28;20033;-49
2022/08/23 06:29:01;;;;;;;2.92;1.90;;;;;;;;;;5041868;28;20032;-44
2022/08/23 06:31:46;;;;;;;2.20;1.70;;;;;;;;;;5042893;28;20033;-44
2022/08/23 06:34:20;;;;;;;3.72;1.52;;;;;;;;;;5044234;28;20029;-47
2022/08/23 06:36:48;;;;;;;1.95;1.58;;;;;;;;;;5045682;28;20477;-44
2022/08/23 06:39:16;;;;;;;10.20;2.65;;;;;;;;;;5042467;28;20033;-47
2022/08/23 06:41:42;;;;;;;4.05;1.58;;;;;;;;;;5038139;28;20790;-50
2022/08/23 06:44:08;;;;;;;3.28;1.80;;;;;;;;;;5039058;28;20318;-47
2022/08/23 06:46:35;;;;;;;1.77;1.60;;;;;;;;;;5040362;28;20033;-47
2022/08/23 06:49:04;;;;;;;2.78;1.73;;;;;;;;;;5043772;28;20057;-46
2022/08/23 06:51:39;;;;;;;6.22;1.92;;;;;;;;;;5043664;28;20464;-46
2022/08/23 06:54:08;;;;;;;2.22;1.42;;;;;;;;;;5041948;28;20041;-51
2022/08/23 06:56:35;;;;;;;6.20;1.70;;;;;;;;;;5041106;28;20122;-49
2022/08/23 06:59:04;;;;;;;4.57;1.70;;;;;;;;;;5041791;28;20665;-45
2022/08/23 07:01:36;;;;;;;4.70;1.80;;;;;;;;;;5036598;28;20034;-47
2022/08/23 07:04:04;;;;;;;5.90;2.33;;;;;;;;;;5041153;28;20025;-47
2022/08/23 07:06:31;;;;;;;6.55;1.50;;;;;;;;;;5044990;28;20045;-46
2022/08/23 07:09:00;;;;;;;6.35;1.75;;;;;;;;;;5043090;28;20397;-46
2022/08/23 07:11:31;;;;;;;4.40;1.80;;;;;;;;;;5043583;28;20406;-46
2022/08/23 07:13:59;;;;;;;1.83;1.50;;;;;;;;;;5043442;28;20539;-49
2022/08/23 07:16:31;;;;;;;2.10;1.60;;;;;;;;;;5046383;28;20028;-46
2022/08/23 07:18:58;;;;;;;4.40;2.22;;;;;;;;;;5043729;28;20029;-44
2022/08/23 07:21:24;;;;;;;5.80;1.52;;;;;;;;;;5041693;28;20112;-48
2022/08/23 07:23:49;;;;;;;4.47;1.70;;;;;;;;;;5042629;28;20112;-48
2022/08/23 07:26:16;;;;;;;4.53;1.70;;;;;;;;;;5046034;28;20056;-45
2022/08/23 07:28:42;;;;;;;4.55;1.65;;;;;;;;;;5044130;28;20487;-44
2022/08/23 07:31:13;;;;;;;3.13;1.63;;;;;;;;;;5043509;28;20033;-47
2022/08/23 07:33:39;;;;;;;3.90;1.98;;;;;;;;;;5045166;28;20053;-44
2022/08/23 07:36:06;;;;;;;10.90;2.45;;;;;;;;;;5045185;28;20442;-46
2022/08/23 07:38:34;;;;;;;6.85;1.90;;;;;;;;;;5045485;28;20501;-46
2022/08/23 07:41:02;;;;;;;3.92;1.63;;;;;;;;;;5045517;28;20079;-46
2022/08/23 07:43:30;;;;;;;21.70;2.67;;;;;;;;;;5046767;28;20037;-44
2022/08/23 07:45:55;;;;;;;3.97;2.17;;;;;;;;;;5046614;28;20029;-44
2022/08/23 07:48:21;;;;;;;2.42;1.77;;;;;;;;;;5047978;28;20029;-46
2022/08/23 07:50:55;;;;;;;1.88;1.70;;;;;;;;;;5046971;28;20021;-44
2022/08/23 07:53:21;;;;;;;4.10;1.70;;;;;;;;;;5044543;28;20025;-44
2022/08/23 07:55:46;;;;;;;2.65;1.80;;;;;;;;;;5047902;28;20049;-45
2022/08/23 07:58:12;;;;;;;3.75;1.80;;;;;;;;;;5049813;28;20031;-48
2022/08/23 08:00:38;;;;;;;9.00;1.95;;;;;;;;;;5042244;28;20028;-44
2022/08/23 08:03:04;;;;;;;4.53;1.88;;;;;;;;;;5047914;28;20029;-44
2022/08/23 08:05:33;;;;;;;1.90;1.65;;;;;;;;;;5048828;28;20073;-45
2022/08/23 08:07:59;;;;;;;5.53;1.75;;;;;;;;;;5045814;28;20029;-44
2022/08/23 08:10:25;;;;;;;1.60;1.50;;;;;;;;;;5047410;28;20432;-44
2022/08/23 08:12:50;;;;;;;4.95;1.65;;;;;;;;;;5047025;28;20062;-46
2022/08/23 08:15:18;;;;;;;2.40;1.70;;;;;;;;;;5045684;28;20038;-46
2022/08/23 08:17:47;;;;;;;3.38;1.75;;;;;;;;;;5045202;28;20033;-44
2022/08/23 08:20:14;;;;;;;2.25;1.80;;;;;;;;;;5030039;28;20032;-45
2022/08/23 08:22:40;;;;;;;3.22;2.00;;;;;;;;;;5043355;28;20075;-45
2022/08/23 08:25:08;;;;;;;3.13;1.60;;;;;;;;;;5045880;28;20033;-45
2022/08/23 08:27:33;;;;;;;3.67;1.90;;;;;;;;;;5045254;28;20013;-44
2022/08/23 08:29:59;;;;;;;2.50;1.70;;;;;;;;;;5047506;28;20079;-45
2022/08/23 08:32:25;;;;;;;2.05;1.60;;;;;;;;;;5047207;28;20078;-45
2022/08/23 08:34:50;;;;;;;2.78;1.40;;;;;;;;;;5043416;28;20059;-46
2022/08/23 08:37:16;;;;;;;2.28;1.80;;;;;;;;;;5046970;28;20028;-46
2022/08/23 08:39:44;;;;;;;3.83;1.83;;;;;;;;;;5048113;28;20421;-48
2022/08/23 08:42:22;;;;;;;3.90;1.90;;;;;;;;;;5045410;28;20020;-47
2022/08/23 08:45:01;;;;;;;11.77;1.90;;;;;;;;;;5044613;28;20041;-45
2022/08/23 08:47:56;;;;;;;4.93;1.67;;;;;;;;;;5044272;28;20021;-50
2022/08/23 08:50:27;;;;;;;6.28;1.95;;;;;;;;;;5046867;28;20556;-49
2022/08/23 08:53:04;;;;;;;5.03;1.70;;;;;;;;;;5043732;28;20430;-49
2022/08/23 08:55:39;;;;;;;3.20;1.70;;;;;;;;;;5042995;28;20043;-44
2022/08/23 08:58:06;;;;;;;2.42;1.58;;;;;;;;;;5045315;28;20103;-48
2022/08/23 09:00:36;;;;;;;2.13;1.80;;;;;;;;;;5040885;28;20035;-49
2022/08/23 09:03:19;;;;;;;2.42;1.67;;;;;;;;;;5039542;28;20033;-46
2022/08/23 09:06:13;;;;;;;5.28;1.90;;;;;;;;;;5044196;28;20044;-48
2022/08/23 09:08:39;;;;;;;4.88;1.70;;;;;;;;;;5046281;28;20037;-46
2022/08/23 09:11:35;;;;;;;4.10;1.50;;;;;;;;;;5046081;28;20540;-48
2022/08/23 09:14:36;;;;;;;2.65;1.98;;;;;;;;;;5044814;28;20547;-48
2022/08/23 09:17:17;;;;;;;2.83;1.83;;;;;;;;;;5045466;28;20037;-45
2022/08/23 09:19:49;;;;;;;3.83;1.90;;;;;;;;;;5025695;28;20029;-46
2022/08/23 09:22:23;;;;;;;3.83;1.73;;;;;;;;;;5044492;28;20033;-48
2022/08/23 09:24:49;;;;;;;3.63;1.60;;;;;;;;;;5042959;28;20033;-45
2022/08/23 09:27:14;;;;;;;11.75;1.92;;;;;;;;;;5045122;28;20021;-46
2022/08/23 09:29:54;;;;;;;5.70;2.00;;;;;;;;;;5040719;28;20053;-46
2022/08/23 09:32:31;;;;;;;3.22;1.98;;;;;;;;;;5043324;28;20635;-45
2022/08/23 09:35:08;;;;;;;4.50;1.73;;;;;;;;;;5044834;28;20032;-46
2022/08/23 09:37:46;;;;;;;4.03;1.50;;;;;;;;;;5047686;28;20056;-45
2022/08/23 09:40:25;;;;;;;5.13;1.58;;;;;;;;;;5044781;28;20047;-46
2022/08/23 09:43:17;;;;;;;2.90;1.67;;;;;;;;;;5041435;28;20029;-48
2022/08/23 09:45:48;;;;;;;;;;;;;;;;;;5045343;28;20060;-45
2022/08/23 09:48:37;;;;;;;7.55;2.00;;;;;;;;;;5042018;28;19963;-49
2022/08/23 09:51:17;;;;;;;3.65;1.60;;;;;;;;;;5043298;28;20033;-47
2022/08/23 09:53:48;;;;;;;2.05;1.80;;;;;;;;;;5046197;28;20047;-49
2022/08/23 09:56:23;;;;;;;4.68;1.98;;;;;;;;;;5043641;28;20053;-46
2022/08/23 09:58:52;;;;;;;3.22;1.80;;;;;;;;;;5041864;28;20060;-46
2022/08/23 10:01:27;;;;;;;6.28;1.90;;;;;;;;;;5042827;28;20521;-46
2022/08/23 10:04:09;;;;;;;7.18;1.60;;;;;;;;;;5042099;28;20041;-48
2022/08/23 10:06:36;;;;;;;4.85;1.73;;;;;;;;;;5039241;28;20462;-50
2022/08/23 10:09:04;;;;;;;5.05;1.77;;;;;;;;;;5045547;28;20041;-52
2022/08/23 10:11:37;;;;;;;2.20;1.92;;;;;;;;;;5043276;28;20112;-50
2022/08/23 10:14:03;;;;;;;5.35;1.70;;;;;;;;;;5044705;28;20024;-52
2022/08/23 10:16:41;;;;;;;2.90;1.60;;;;;;;;;;5042377;28;20367;-51
2022/08/23 10:19:24;;;;;;;4.20;1.83;;;;;;;;;;5046444;28;20040;-49
2022/08/23 10:22:02;;;;;;;3.22;1.90;;;;;;;;;;5043011;28;20474;-52
2022/08/23 10:24:43;;;;;;;5.43;1.70;;;;;;;;;;5041580;28;20065;-46
2022/08/23 10:30:31;;;;;;;3.15;1.75;;;;;;;;;;5045345;28;20137;-52
2022/08/23 10:33:22;;;;;;;3.97;1.88;;;;;;;;;;5041360;28;20025;-52
2022/08/23 10:36:03;;;;;;;3.15;1.77;;;;;;;;;;5043854;28;20136;-46
2022/08/23 10:38:35;;;;;;;4.25;1.70;;;;;;;;;;5043070;28;20066;-45
2022/08/23 10:41:22;;;;;;;4.18;1.70;;;;;;;;;;5044582;28;20122;-52
2022/08/23 10:43:49;;;;;;;4.18;1.70;;;;;;;;;;5042497;28;20030;-49
2022/08/23 10:46:16;;;;;;;2.30;1.55;;;;;;;;;;5046092;28;20033;-46
2022/08/23 10:48:50;;;;;;;3.28;1.60;;;;;;;;;;5045086;28;20032;-48
2022/08/23 10:51:23;;;;;;;2.88;1.90;;;;;;;;;;5045847;28;20032;-48
2022/08/23 10:54:12;;;;;;;2.92;1.70;;;;;;;;;;5043482;28;20104;-48
2022/08/23 10:56:38;;;;;;;3.75;1.65;;;;;;;;;;5038628;28;20045;-46
2022/08/23 10:59:19;;;;;;;3.47;1.90;;;;;;;;;;5045048;28;20028;-46
2022/08/23 11:02:00;;;;;;;5.10;1.70;;;;;;;;;;5043427;28;20082;-50
2022/08/23 11:04:31;;;;;;;;;;;;;;;;;;5044719;28;20047;-50
2022/08/23 11:06:59;;;;;;;2.05;1.38;;;;;;;;;;5041773;28;20373;-47
2022/08/23 11:09:25;;;;;;;2.00;1.65;;;;;;;;;;5047044;28;20060;-51
2022/08/23 11:12:17;;;;;;;4.03;1.60;;;;;;;;;;5049769;28;20564;-50
2022/08/23 11:14:58;;;;;;;4.18;1.45;;;;;;;;;;5043929;28;20033;-49
2022/08/23 11:17:48;;;;;;;4.82;1.80;;;;;;;;;;5046290;28;20056;-48
2022/08/23 11:20:49;;;;;;;2.67;1.65;;;;;;;;;;5047251;28;20029;-46
2022/08/23 11:23:33;;;;;;;3.30;1.70;;;;;;;;;;5042049;28;20103;-47
2022/08/23 11:26:00;;;;;;;2.65;1.63;;;;;;;;;;5048865;28;20025;-48
2022/08/23 11:28:26;;;;;;;2.88;1.70;;;;;;;;;;5047784;28;20040;-50
2022/08/23 11:31:07;;;;;;;2.00;1.80;;;;;;;;;;5049334;28;20025;-50
2022/08/23 11:33:46;;;;;;;2.85;1.98;;;;;;;;;;5042762;28;20037;-51
2022/08/23 11:36:12;;;;;;;2.83;1.85;;;;;;;;;;5049115;28;20025;-49
2022/08/23 11:38:46;;;;;;;2.50;1.90;;;;;;;;;;5047822;28;20086;-46
2022/08/23 11:41:18;;;;;;;2.40;1.70;;;;;;;;;;5045299;28;20369;-51
2022/08/23 11:44:09;;;;;;;5.18;2.03;;;;;;;;;;5050429;28;20037;-49
2022/08/23 11:46:36;;;;;;;2.25;1.98;;;;;;;;;;5029402;28;20052;-51
2022/08/23 11:49:10;;;;;;;2.20;1.70;;;;;;;;;;5046087;28;20582;-49
2022/08/23 11:52:01;;;;;;;2.97;1.42;;;;;;;;;;5045992;28;20040;-47
2022/08/23 11:54:54;;;;;;;4.72;1.80;;;;;;;;;;5047264;28;20044;-51
2022/08/23 11:57:53;;;;;;;3.80;1.55;;;;;;;;;;5042162;28;20036;-49
2022/08/23 12:00:27;;;;;;;3.83;1.70;;;;;;;;;;5004739;28;20535;-50
2022/08/23 12:03:00;;;;;;;1.52;1.42;;;;;;;;;;5001405;28;20050;-48
2022/08/23 12:05:40;;;;;;;4.50;1.73;;;;;;;;;;5004142;28;20049;-48
2022/08/23 12:08:05;;;;;;;2.55;1.55;;;;;;;;;;5003849;28;20073;-50
2022/08/23 12:10:40;;;;;;;3.15;1.50;;;;;;;;;;5005347;28;20042;-53
2022/08/23 12:13:18;;;;;;;2.75;1.70;;;;;;;;;;5005664;28;20109;-47
2022/08/23 12:16:10;;;;;;;3.97;1.73;;;;;;;;;;5004602;28;20057;-52
2022/08/23 12:18:59;;;;;;;3.22;1.63;;;;;;;;;;5003861;28;20116;-49
2022/08/23 12:21:49;;;;;;;1.65;1.50;;;;;;;;;;5003507;28;20034;-49
2022/08/23 12:24:24;;;;;;;9.40;1.65;;;;;;;;;;4999618;28;20045;-50
2022/08/23 12:27:22;;;;;;;1.58;1.48;;;;;;;;;;5005110;28;20581;-51
2022/08/23 12:29:56;;;;;;;2.85;1.95;;;;;;;;;;4997002;28;20200;-49
2022/08/23 12:32:41;;;;;;;3.17;1.58;;;;;;;;;;5003106;28;20041;-48
2022/08/23 12:35:21;;;;;;;3.33;1.58;;;;;;;;;;5001058;28;20470;-51
2022/08/23 12:37:50;;;;;;;1.70;1.50;;;;;;;;;;5034447;28;20489;-49
2022/08/23 12:40:38;;;;;;;3.10;1.58;;;;;;;;;;5041783;28;20394;-49
2022/08/23 12:43:15;;;;;;;8.02;1.80;;;;;;;;;;5043802;28;20036;-49
2022/08/23 12:45:45;;;;;;;5.05;1.77;;;;;;;;;;5044608;28;20048;-51
2022/08/23 12:48:13;;;;;;;1.77;1.60;;;;;;;;;;5045501;28;20373;-50
2022/08/23 12:50:44;;;;;;;7.35;1.80;;;;;;;;;;5045906;28;20032;-47
2022/08/23 12:53:16;;;;;;;4.35;1.60;;;;;;;;;;5043241;28;20021;-46
2022/08/23 12:55:48;;;;;;;6.38;1.88;;;;;;;;;;5045003;28;20041;-47
2022/08/23 12:58:15;;;;;;;6.47;1.67;;;;;;;;;;5043165;28;20029;-50
2022/08/23 13:00:54;;;;;;;4.95;2.70;;;;;;;;;;5044870;28;20029;-49
2022/08/23 13:03:27;;;;;;;3.25;2.50;;;;;;;;;;5043452;28;20029;-48
2022/08/23 13:06:00;;;;;;;1.92;1.83;;;;;;;;;;5059895;28;20029;-47
2022/08/23 13:08:32;;;;;;;3.13;2.28;;;;;;;;;;5044793;28;20040;-49
2022/08/23 13:10:57;;;;;;;8.27;2.88;;;;;;;;;;5043924;28;20036;-52
2022/08/23 13:13:26;;;;;;;4.88;2.85;;;;;;;;;;5046384;28;20043;-52
2022/08/23 13:15:55;;;;;;;4.05;1.85;;;;;;;;;;5044897;28;20033;-46
2022/08/23 13:18:39;;;;;;;2.72;1.92;;;;;;;;;;5044659;28;20427;-52
2022/08/23 13:21:27;;;;;;;13.05;2.30;;;;;;;;;;5045517;28;20025;-47
2022/08/23 13:23:59;;;;;;;4.43;1.90;;;;;;;;;;5047300;28;20028;-46
2022/08/23 13:26:26;;;;;;;3.50;1.65;;;;;;;;;;5045143;28;20024;-50
2022/08/23 13:29:12;;;;;;;6.40;1.80;;;;;;;;;;5044591;28;20436;-46
2022/08/23 13:31:57;;;;;;;3.08;1.40;;;;;;;;;;5039704;28;20433;-46
2022/08/23 13:34:29;;;;;;;2.60;1.70;;;;;;;;;;5044769;28;20123;-46
2022/08/23 13:37:01;;;;;;;4.25;1.50;;;;;;;;;;5042898;28;20027;-47
2022/08/23 13:39:29;;;;;;;4.13;1.50;;;;;;;;;;5043260;28;20503;-50
2022/08/23 13:41:54;;;;;;;1.70;1.52;;;;;;;;;;5047099;28;20067;-47
2022/08/23 13:44:21;;;;;;;3.80;1.70;;;;;;;;;;5044513;28;20490;-47
2022/08/23 13:46:47;;;;;;;1.80;1.70;;;;;;;;;;5040939;28;20100;-54
2022/08/23 13:49:20;;;;;;;2.50;1.45;;;;;;;;;;5044185;28;20082;-52
2022/08/23 13:52:08;;;;;;;5.43;1.60;;;;;;;;;;5046175;28;20132;-52
2022/08/23 13:54:34;;;;;;;6.15;1.52;;;;;;;;;;5047956;28;20397;-47
2022/08/23 13:57:04;;;;;;;2.30;1.67;;;;;;;;;;5044837;28;20108;-49
2022/08/23 13:59:47;;;;;;;3.60;1.40;;;;;;;;;;5042369;28;20033;-52
2022/08/23 14:02:16;;;;;;;2.88;1.83;;;;;;;;;;5043550;28;20171;-52
2022/08/23 14:04:42;;;;;;;4.68;1.75;;;;;;;;;;5043998;28;20040;-50
2022/08/23 14:07:09;;;;;;;3.25;1.83;;;;;;;;;;5045891;28;20044;-49
2022/08/23 14:09:36;;;;;;;5.18;1.83;;;;;;;;;;5045630;28;20036;-46
2022/08/23 14:12:06;;;;;;;2.85;1.73;;;;;;;;;;5046840;28;20033;-53
2022/08/23 14:14:34;;;;;;;2.22;1.48;;;;;;;;;;5041789;28;20025;-46
2022/08/23 14:17:00;;;;;;;2.20;1.70;;;;;;;;;;5043671;28;20036;-51
2022/08/23 14:19:26;;;;;;;6.65;1.67;;;;;;;;;;5044792;28;20033;-47
2022/08/23 14:21:51;;;;;;;4.95;1.40;;;;;;;;;;5045737;28;20071;-46
2022/08/23 14:24:18;;;;;;;2.35;1.50;;;;;;;;;;5042485;28;20120;-51
2022/08/23 14:26:44;;;;;;;1.42;1.33;;;;;;;;;;5044164;28;20067;-51
2022/08/23 14:29:10;;;;;;;1.83;1.73;;;;;;;;;;5044169;28;20048;-49
2022/08/23 14:31:36;;;;;;;7.85;1.73;;;;;;;;;;5042309;28;20028;-46
2022/08/23 14:34:02;;;;;;;2.00;1.65;;;;;;;;;;5044010;28;20029;-47
2022/08/23 14:36:28;;;;;;;8.23;2.08;;;;;;;;;;5039865;28;20440;-49
2022/08/23 14:38:53;;;;;;;3.55;1.83;;;;;;;;;;5047880;28;20025;-50
2022/08/23 14:41:21;;;;;;;2.95;1.55;;;;;;;;;;5046396;28;20382;-50
2022/08/23 14:43:49;;;;;;;3.20;1.80;;;;;;;;;;5047447;28;20021;-51
2022/08/23 14:46:15;;;;;;;7.80;1.90;;;;;;;;;;5048269;28;20040;-46
2022/08/23 14:48:40;;;;;;;1.80;1.70;;;;;;;;;;5046929;28;20393;-51
2022/08/23 14:51:26;;;;;;;3.05;1.70;;;;;;;;;;5047619;28;20036;-51
2022/08/23 14:53:53;;;;;;;3.40;1.80;;;;;;;;;;5047723;28;20032;-52
2022/08/23 14:56:20;;;;;;;2.00;1.50;;;;;;;;;;5047767;28;20045;-50
2022/08/23 14:58:47;;;;;;;2.47;1.70;;;;;;;;;;5048669;28;20029;-51
2022/08/23 15:01:13;;;;;;;2.47;1.70;;;;;;;;;;5046865;28;20052;-48
2022/08/23 15:03:40;;;;;;;2.20;1.67;;;;;;;;;;5048257;28;20078;-51
2022/08/23 15:06:11;;;;;;;3.35;1.52;;;;;;;;;;5048119;28;20569;-48
2022/08/23 15:08:37;;;;;;;5.60;1.92;;;;;;;;;;5045952;28;20044;-50
2022/08/23 15:11:05;;;;;;;6.72;1.88;;;;;;;;;;5050167;28;20083;-48
2022/08/23 15:13:31;;;;;;;2.78;1.90;;;;;;;;;;5043053;28;20037;-49
2022/08/23 15:15:57;;;;;;;2.88;1.77;;;;;;;;;;5047986;28;20465;-52
2022/08/23 15:18:23;;;;;;;2.22;1.80;;;;;;;;;;5046672;28;20036;-49